createdAt,value
2022-09-07T00:01:30.644Z,101168.41
2022-09-07T00:04:33.314Z,101167.06
2022-09-07T00:07:36.003Z,101170.56
2022-09-07T00:10:40.039Z,101173.22
2022-09-07T00:13:43.951Z,101175.72
2022-09-07T00:16:46.577Z,101181.50
2022-09-07T00:19:49.238Z,101169.63
2022-09-07T00:22:51.836Z,101174.81
2022-09-07T00:25:59.530Z,101175.72
2022-09-07T00:29:04.068Z,101168.91
2022-09-07T00:32:06.712Z,101165.69
2022-09-07T00:35:10.207Z,101171.50
2022-09-07T00:38:13.490Z,101163.31
2022-09-07T00:41:19.309Z,101160.41
2022-09-07T00:45:10.927Z,101162.53
2022-09-07T00:48:20.987Z,101159.47
2022-09-07T00:51:28.619Z,101149.41
2022-09-07T00:54:36.954Z,101139.94
2022-09-07T00:57:44.348Z,101139.53
2022-09-07T01:00:48.565Z,101137.38
2022-09-07T01:03:53.623Z,101141.88
2022-09-07T01:06:56.734Z,101145.94
2022-09-07T01:10:00.153Z,101140.47
2022-09-07T01:13:04.138Z,101139.09
2022-09-07T01:16:13.946Z,101133.59
2022-09-07T01:19:58.840Z,101132.28
2022-09-07T01:23:31.452Z,101126.19
2022-09-07T01:27:12.224Z,101125.56
2022-09-07T01:30:19.081Z,101119.88
2022-09-07T01:33:41.005Z,101123.84
2022-09-07T01:36:51.652Z,101115.50
2022-09-07T01:40:09.118Z,101117.56
2022-09-07T01:43:18.163Z,101109.09
2022-09-07T01:46:27.504Z,101105.94
2022-09-07T01:49:35.789Z,101096.66
2022-09-07T01:52:45.261Z,101096.31
2022-09-07T01:55:51.530Z,101096.59
2022-09-07T01:58:58.197Z,101091.28
2022-09-07T02:02:06.875Z,101091.47
2022-09-07T02:05:14.498Z,101087.47
2022-09-07T02:08:24.713Z,101086.47
2022-09-07T02:11:34.589Z,101088.94
2022-09-07T02:14:42.045Z,101079.84
2022-09-07T02:17:52.356Z,101083.97
2022-09-07T02:20:59.014Z,101086.31
2022-09-07T02:24:06.388Z,101090.78
2022-09-07T02:27:14.394Z,101097.44
2022-09-07T02:30:17.519Z,101094.66
2022-09-07T02:33:21.912Z,101092.84
2022-09-07T02:36:30.373Z,101089.66
2022-09-07T02:39:33.650Z,101081.63
2022-09-07T02:42:37.717Z,101078.91
2022-09-07T02:45:57.371Z,101088.66
2022-09-07T02:49:10.080Z,101083.56
2022-09-07T02:52:23.512Z,101091.63
2022-09-07T02:55:36.340Z,101088.47
2022-09-07T02:58:47.414Z,101085.44
2022-09-07T03:02:01.265Z,101079.72
2022-09-07T03:05:13.287Z,101076.22
2022-09-07T03:08:20.029Z,101077.94
2022-09-07T03:11:23.624Z,101082.97
2022-09-07T03:14:30.224Z,101077.06
2022-09-07T03:17:32.858Z,101079.31
2022-09-07T03:20:36.824Z,101069.22
2022-09-07T03:23:39.503Z,101063.94
2022-09-07T03:26:46.078Z,101059.88
2022-09-07T03:29:48.721Z,101061.13
2022-09-07T03:32:51.378Z,101051.06
2022-09-07T03:36:02.574Z,101045.38
2022-09-07T03:39:07.029Z,101040.19
2022-09-07T03:42:09.794Z,101035.63
2022-09-07T03:45:12.478Z,101032.38
2022-09-07T03:48:15.120Z,101025.78
2022-09-07T03:51:19.697Z,101027.91
2022-09-07T03:54:22.754Z,101022.19
2022-09-07T03:57:25.366Z,101019.25
2022-09-07T04:00:27.980Z,101006.41
2022-09-07T04:03:30.582Z,101005.44
2022-09-07T04:06:34.720Z,100998.94
2022-09-07T04:09:37.305Z,100996.25
2022-09-07T04:12:39.912Z,101002.31
2022-09-07T04:15:42.498Z,101004.22
2022-09-07T04:18:45.326Z,100995.00
2022-09-07T04:21:49.310Z,100980.81
2022-09-07T04:24:51.902Z,100982.97
2022-09-07T04:27:54.880Z,100991.25
2022-09-07T04:31:01.382Z,100972.66
2022-09-07T04:34:05.196Z,100979.53
2022-09-07T04:37:09.110Z,100977.78
2022-09-07T04:40:12.395Z,100974.47
2022-09-07T04:43:15.042Z,100973.91
2022-09-07T04:46:21.657Z,100982.38
2022-09-07T04:49:24.303Z,100982.88
2022-09-07T04:52:28.251Z,100998.06
2022-09-07T04:55:30.848Z,101006.56
2022-09-07T04:58:33.464Z,101000.78
2022-09-07T05:01:36.159Z,101009.50
2022-09-07T05:04:38.793Z,101014.53
2022-09-07T05:07:42.782Z,101020.03
2022-09-07T05:10:52.202Z,101047.16
2022-09-07T05:13:56.666Z,101077.41
2022-09-07T05:16:59.338Z,101123.13
2022-09-07T05:20:02.022Z,101119.84
2022-09-07T05:23:05.993Z,101088.44
2022-09-07T05:26:09.356Z,101113.50
2022-09-07T05:32:34.737Z,101111.75
2022-09-07T05:35:37.328Z,101111.03
2022-09-07T05:38:41.355Z,101118.13
2022-09-07T05:41:44.006Z,101091.31
2022-09-07T05:44:46.638Z,101079.59
2022-09-07T05:47:50.789Z,101085.47
2022-09-07T05:50:54.147Z,101080.91
2022-09-07T05:53:58.612Z,101086.88
2022-09-07T05:57:03.088Z,101095.88
2022-09-07T06:00:06.425Z,101091.84
2022-09-07T06:03:09.260Z,101077.31
2022-09-07T06:06:13.362Z,101091.06
2022-09-07T06:09:17.334Z,101084.09
2022-09-07T06:12:20.044Z,101068.84
2022-09-07T06:15:22.654Z,101071.16
2022-09-07T06:18:25.249Z,101078.66
2022-09-07T06:21:27.863Z,101072.34
2022-09-07T06:24:31.833Z,101069.81
2022-09-07T06:27:34.784Z,101084.16
2022-09-07T06:30:37.520Z,101081.19
2022-09-07T06:33:40.633Z,101083.94
2022-09-07T06:36:43.220Z,101083.47
2022-09-07T06:39:49.345Z,101086.69
2022-09-07T06:42:52.058Z,101093.47
2022-09-07T06:45:55.385Z,101086.72
2022-09-07T06:48:58.120Z,101082.16
2022-09-07T06:52:00.732Z,101086.56
2022-09-07T06:55:05.045Z,101085.97
2022-09-07T06:58:08.516Z,101085.59
2022-09-07T07:01:14.558Z,101077.97
2022-09-07T07:04:17.185Z,101080.41
2022-09-07T07:07:19.792Z,101079.25
2022-09-07T07:10:24.840Z,101075.03
2022-09-07T07:13:27.949Z,101077.88
2022-09-07T07:16:30.651Z,101073.09
2022-09-07T07:19:33.356Z,101076.28
2022-09-07T07:22:46.488Z,101073.66
2022-09-07T07:25:51.090Z,101064.94
2022-09-07T07:29:03.548Z,101064.84
2022-09-07T07:32:06.874Z,101053.16
2022-09-07T07:35:18.200Z,101055.06
2022-09-07T07:48:17.595Z,101023.19
2022-09-07T07:51:20.553Z,101035.72
2022-09-07T07:54:23.120Z,101051.63
2022-09-07T07:57:27.046Z,101033.72
2022-09-07T08:00:50.697Z,101009.56
2022-09-07T08:03:52.541Z,101015.75
2022-09-07T08:06:55.083Z,101023.06
2022-09-07T08:09:57.681Z,101012.78
2022-09-07T08:13:01.611Z,100994.31
2022-09-07T08:16:05.413Z,100984.97
2022-09-07T08:19:07.896Z,100992.13
2022-09-07T08:22:11.659Z,100991.69
2022-09-07T08:25:14.148Z,100986.72
2022-09-07T08:28:17.971Z,100971.22
2022-09-07T08:31:21.788Z,100969.09
2022-09-07T08:34:24.286Z,100961.81
2022-09-07T08:37:26.780Z,100955.72
2022-09-07T08:40:30.170Z,100948.97
2022-09-07T08:43:49.936Z,100955.47
2022-09-07T08:46:57.413Z,100959.31
2022-09-07T08:50:05.198Z,100951.91
2022-09-07T08:53:13.514Z,100964.66
2022-09-07T08:56:23.243Z,100972.53
2022-09-07T08:59:36.727Z,100966.13
2022-09-07T09:02:43.989Z,100988.84
2022-09-07T09:06:01.619Z,100992.00
2022-09-07T09:09:17.493Z,101019.63
2022-09-07T09:12:36.833Z,101020.53
2022-09-07T09:15:59.345Z,101025.69
2022-09-07T09:19:15.399Z,101030.25
2022-09-07T09:22:20.305Z,101030.44
2022-09-07T09:25:27.682Z,101043.81
2022-09-07T09:28:32.330Z,101040.16
2022-09-07T09:31:36.989Z,101046.44
2022-09-07T09:34:39.525Z,101047.28
2022-09-07T09:37:43.538Z,101047.06
2022-09-07T09:40:53.537Z,101037.38
2022-09-07T09:43:58.097Z,101047.34
2022-09-07T09:54:02.597Z,101049.94
2022-09-07T09:57:05.691Z,101047.28
2022-09-07T10:00:27.878Z,101041.47
2022-09-07T10:07:00.083Z,101040.06
2022-09-07T10:10:02.662Z,101036.38
2022-09-07T10:13:08.663Z,101028.09
2022-09-07T10:16:12.369Z,101028.47
2022-09-07T10:19:30.836Z,101017.91
2022-09-07T10:22:35.913Z,101019.06
2022-09-07T10:25:40.469Z,101016.06
2022-09-07T10:32:26.316Z,101017.09
2022-09-07T10:35:34.282Z,101009.59
2022-09-07T10:38:43.455Z,101019.25
2022-09-07T10:41:54.762Z,101016.78
2022-09-07T10:45:09.051Z,101004.38
2022-09-07T10:48:18.125Z,101010.13
2022-09-07T10:51:30.981Z,101008.44
2022-09-07T10:54:43.489Z,101009.91
2022-09-07T10:57:59.437Z,101002.25
2022-09-07T11:01:12.526Z,100995.88
2022-09-07T11:04:41.673Z,100992.41
2022-09-07T11:08:02.173Z,101000.88
2022-09-07T11:11:17.317Z,100992.31
2022-09-07T11:14:25.336Z,100993.31
2022-09-07T11:17:30.057Z,100981.25
2022-09-07T11:20:37.449Z,100981.81
2022-09-07T11:23:45.164Z,100985.56
2022-09-07T11:26:51.589Z,100979.84
2022-09-07T11:30:00.415Z,100984.09
2022-09-07T11:33:10.970Z,100976.47
2022-09-07T11:36:17.309Z,100979.56
2022-09-07T11:39:26.476Z,100963.00
2022-09-07T11:42:50.342Z,100968.13
2022-09-07T11:45:57.752Z,100965.22
2022-09-07T11:49:04.269Z,100965.91
2022-09-07T11:52:11.881Z,100962.91
2022-09-07T11:55:21.481Z,100961.22
2022-09-07T11:58:50.178Z,100959.88
2022-09-07T12:02:12.280Z,100959.75
2022-09-07T12:05:26.187Z,100954.75
2022-09-07T12:08:41.715Z,100950.03
2022-09-07T12:12:04.811Z,100941.16
2022-09-07T12:15:19.850Z,100938.59
2022-09-07T12:18:36.856Z,100944.03
2022-09-07T12:21:43.262Z,100937.69
2022-09-07T12:24:48.349Z,100937.09
2022-09-07T12:27:52.970Z,100927.88
2022-09-07T12:30:58.543Z,100926.56
2022-09-07T12:34:34.343Z,100913.88
2022-09-07T12:37:40.442Z,100908.53
2022-09-07T12:40:59.880Z,100904.97
2022-09-07T12:44:16.693Z,100909.56
2022-09-07T12:47:29.265Z,100912.88
2022-09-07T12:50:39.270Z,100907.13
2022-09-07T12:53:57.611Z,100906.66
2022-09-07T12:57:30.891Z,100920.34
2022-09-07T13:00:49.175Z,100914.44
2022-09-07T13:04:23.108Z,100923.81
2022-09-07T13:07:42.396Z,100929.03
2022-09-07T13:10:47.077Z,100922.63
2022-09-07T13:14:03.936Z,100916.59
2022-09-07T13:17:44.364Z,100923.09
2022-09-07T13:21:06.964Z,100915.53
2022-09-07T13:24:49.801Z,100910.53
2022-09-07T13:27:55.601Z,100919.09
2022-09-07T13:31:14.901Z,100914.03
2022-09-07T13:34:48.500Z,100914.81
2022-09-07T13:37:53.712Z,100911.38
2022-09-07T13:41:00.422Z,100910.66
2022-09-07T13:44:05.662Z,100913.88
2022-09-07T13:47:21.580Z,100904.53
2022-09-07T13:50:40.123Z,100907.47
2022-09-07T13:53:57.613Z,100913.09
2022-09-07T13:57:12.590Z,100908.31
2022-09-07T14:00:16.605Z,100905.41
2022-09-07T14:03:19.128Z,100897.53
2022-09-07T14:06:32.523Z,100901.94
2022-09-07T14:09:35.834Z,100905.72
2022-09-07T14:12:44.018Z,100905.88
2022-09-07T14:15:48.844Z,100897.56
2022-09-07T14:18:51.409Z,100895.16
2022-09-07T14:22:00.180Z,100893.44
2022-09-07T14:25:05.721Z,100895.31
2022-09-07T14:28:30.297Z,100882.97
2022-09-07T14:31:33.219Z,100886.00
2022-09-07T14:34:38.186Z,100882.47
2022-09-07T14:37:42.702Z,100884.84
2022-09-07T14:40:45.273Z,100888.28
2022-09-07T14:43:56.030Z,100886.69
2022-09-07T14:47:00.553Z,100894.28
2022-09-07T14:50:05.803Z,100885.56
2022-09-07T14:56:41.516Z,100883.81
2022-09-07T14:59:46.280Z,100883.78
2022-09-07T15:02:48.832Z,100887.25
2022-09-07T15:05:51.622Z,100889.16
2022-09-07T15:08:55.520Z,100882.66
2022-09-07T15:12:15.006Z,100876.44
2022-09-07T15:15:26.221Z,100871.94
2022-09-07T15:18:54.477Z,100877.66
2022-09-07T15:21:57.142Z,100868.06
2022-09-07T15:25:01.121Z,100875.63
2022-09-07T15:28:04.005Z,100872.00
2022-09-07T15:34:29.476Z,100865.66
2022-09-07T15:41:22.033Z,100856.53
2022-09-07T15:44:25.019Z,100860.38
2022-09-07T15:47:50.402Z,100858.50
2022-09-07T15:50:51.753Z,100858.75
2022-09-07T15:54:13.182Z,100853.69
2022-09-07T16:00:40.867Z,100850.69
2022-09-07T16:03:43.513Z,100854.03
2022-09-07T16:06:48.149Z,100855.19
2022-09-07T16:09:52.463Z,100855.19
2022-09-07T16:13:10.457Z,100856.38
2022-09-07T16:16:15.669Z,100853.69
2022-09-07T16:19:21.655Z,100852.53
2022-09-07T16:25:57.958Z,100853.88
2022-09-07T16:29:02.202Z,100843.44
2022-09-07T16:35:27.503Z,100845.31
2022-09-07T16:38:47.381Z,100836.66
2022-09-07T16:41:50.438Z,100839.56
2022-09-07T16:44:54.857Z,100841.16
2022-09-07T16:47:57.751Z,100841.94
2022-09-07T16:51:02.596Z,100843.97
2022-09-07T16:54:06.477Z,100849.56
2022-09-07T16:57:09.119Z,100846.97
2022-09-07T17:00:15.165Z,100843.03
2022-09-07T17:03:17.767Z,100846.47
2022-09-07T17:06:23.566Z,100850.56
2022-09-07T17:09:28.582Z,100853.69
2022-09-07T17:12:31.406Z,100848.75
2022-09-07T17:15:35.620Z,100847.31
2022-09-07T17:22:01.923Z,100856.75
2022-09-07T17:25:05.074Z,100854.19
2022-09-07T17:28:07.701Z,100841.06
2022-09-07T17:32:23.721Z,100854.19
2022-09-07T17:34:36.776Z,100856.75
2022-09-07T17:37:39.322Z,100859.28
2022-09-07T17:40:43.951Z,100865.09
2022-09-07T17:43:47.127Z,100866.38
2022-09-07T17:46:51.154Z,100865.06
2022-09-07T17:49:53.833Z,100866.88
2022-09-07T17:52:56.602Z,100869.16
2022-09-07T17:55:59.241Z,100859.97
2022-09-07T18:02:26.800Z,100854.38
2022-09-07T18:05:29.374Z,100854.22
2022-09-07T18:08:32.055Z,100863.56
2022-09-07T18:11:50.912Z,100868.31
2022-09-07T18:14:53.730Z,100879.66
2022-09-07T18:17:58.515Z,100879.06
2022-09-07T18:21:01.133Z,100878.03
2022-09-07T18:24:07.463Z,100874.16
2022-09-07T18:27:10.169Z,100869.28
2022-09-07T18:30:13.773Z,100875.22
2022-09-07T18:33:17.803Z,100879.41
2022-09-07T18:36:20.703Z,100892.47
2022-09-07T18:39:23.340Z,100885.34
2022-09-07T18:42:25.946Z,100895.56
2022-09-07T18:45:28.649Z,100892.25
2022-09-07T18:48:33.070Z,100897.66
2022-09-07T18:52:51.573Z,100905.75
2022-09-07T18:54:58.166Z,100909.97
2022-09-07T18:58:02.726Z,100915.88
2022-09-07T19:01:06.343Z,100914.88
2022-09-07T19:04:10.589Z,100913.22
2022-09-07T19:07:13.400Z,100910.16
2022-09-07T19:10:16.760Z,100911.00
2022-09-07T19:13:19.398Z,100911.53
2022-09-07T19:16:22.723Z,100909.81
2022-09-07T19:19:26.811Z,100904.06
2022-09-07T19:22:29.588Z,100904.19
2022-09-07T19:25:32.223Z,100899.78
2022-09-07T19:28:35.261Z,100896.09
2022-09-07T19:31:37.909Z,100894.41
2022-09-07T19:34:43.624Z,100892.56
2022-09-07T19:37:46.245Z,100893.69
2022-09-07T19:40:56.299Z,100903.00
2022-09-07T19:43:59.086Z,100898.34
2022-09-07T19:47:02.037Z,100908.66
2022-09-07T19:50:07.030Z,100893.09
2022-09-07T19:53:09.638Z,100889.13
2022-09-07T19:56:14.158Z,100898.00
2022-09-07T19:59:19.532Z,100894.66
2022-09-07T20:02:22.102Z,100895.28
2022-09-07T20:05:29.445Z,100890.97
2022-09-07T20:08:32.044Z,100888.06
2022-09-07T20:11:35.645Z,100892.59
2022-09-07T20:14:38.170Z,100881.69
2022-09-07T20:17:40.697Z,100878.13
2022-09-07T20:20:44.624Z,100885.50
2022-09-07T20:23:47.314Z,100890.13
2022-09-07T20:26:50.366Z,100888.28
2022-09-07T20:29:53.194Z,100881.66
2022-09-07T20:32:55.771Z,100880.22
2022-09-07T20:36:04.694Z,100871.88
2022-09-07T20:39:07.166Z,100872.22
2022-09-07T20:42:09.829Z,100879.94
2022-09-07T20:45:12.323Z,100889.38
2022-09-07T20:48:15.330Z,100890.50
2022-09-07T20:51:21.247Z,100895.41
2022-09-07T20:54:23.798Z,100891.72
2022-09-07T20:57:26.286Z,100887.06
2022-09-07T21:00:29.397Z,100884.97
2022-09-07T21:03:31.979Z,100885.97
2022-09-07T21:06:35.784Z,100887.03
2022-09-07T21:09:38.248Z,100888.78
2022-09-07T21:12:40.725Z,100876.28
2022-09-07T21:15:45.047Z,100879.94
2022-09-07T21:18:47.567Z,100884.84
2022-09-07T21:21:51.391Z,100882.41
2022-09-07T21:24:53.912Z,100872.72
2022-09-07T21:27:56.511Z,100872.63
2022-09-07T21:31:00.509Z,100863.28
2022-09-07T21:34:03.456Z,100863.19
2022-09-07T21:37:07.293Z,100859.25
2022-09-07T21:40:10.658Z,100860.38
2022-09-07T21:43:13.233Z,100865.63
2022-09-07T21:46:18.507Z,100872.50
2022-09-07T21:49:21.040Z,100881.06
2022-09-07T21:52:24.939Z,100874.91
2022-09-07T21:55:27.430Z,100870.88
2022-09-07T21:58:30.611Z,100860.53
2022-09-07T22:01:34.254Z,100851.84
2022-09-07T22:04:36.816Z,100847.56
2022-09-07T22:07:40.651Z,100843.59
2022-09-07T22:10:43.617Z,100843.50
2022-09-07T22:13:46.515Z,100842.63
2022-09-07T22:16:48.970Z,100845.22
2022-09-07T22:19:51.553Z,100840.19
2022-09-07T22:22:55.358Z,100840.41
2022-09-07T22:25:57.847Z,100842.78
2022-09-07T22:29:00.476Z,100836.34
2022-09-07T22:32:03.427Z,100830.06
2022-09-07T22:35:06.795Z,100827.75
2022-09-07T22:38:10.632Z,100825.63
2022-09-07T22:41:15.426Z,100830.16
2022-09-07T22:44:19.537Z,100821.50
2022-09-07T22:47:22.029Z,100843.97
2022-09-07T22:50:24.520Z,100832.47
2022-09-07T22:53:28.953Z,100842.19
2022-09-07T22:56:33.878Z,100836.53
2022-09-07T22:59:36.370Z,100843.75
2022-09-07T23:02:38.844Z,100832.88
2022-09-07T23:05:41.378Z,100830.88
2022-09-07T23:08:45.226Z,100821.75
2022-09-07T23:11:48.944Z,100821.50
2022-09-07T23:14:51.443Z,100817.44
2022-09-07T23:17:53.937Z,100809.75
2022-09-07T23:21:00.416Z,100806.69
2022-09-07T23:24:05.027Z,100807.00
2022-09-07T23:27:07.482Z,100803.09
2022-09-07T23:30:11.631Z,100794.28
2022-09-07T23:33:14.265Z,100798.84
2022-09-07T23:36:17.453Z,100802.34
2022-09-07T23:39:21.405Z,100796.44
2022-09-07T23:42:23.882Z,100796.38
2022-09-07T23:45:27.111Z,100794.09
2022-09-07T23:48:29.710Z,100785.63
2022-09-07T23:51:32.181Z,100788.84
2022-09-07T23:54:35.995Z,100786.53
2022-09-07T23:57:39.193Z,100778.81
